createdAt,value
2018-07-21T00:01:54.110Z,2.10
2018-07-21T00:04:20.066Z,2.20
2018-07-21T00:06:46.042Z,2.37
2018-07-21T00:09:12.058Z,2.07
2018-07-21T00:11:37.986Z,2.30
2018-07-21T00:14:04.069Z,2.30
2018-07-21T00:16:30.022Z,2.20
2018-07-21T00:18:55.996Z,2.20
2018-07-21T00:21:22.682Z,2.37
2018-07-21T00:23:48.615Z,2.53
2018-07-21T00:26:14.584Z,2.37
2018-07-21T00:28:40.540Z,2.63
2018-07-21T00:31:06.542Z,2.37
2018-07-21T00:33:32.493Z,2.30
2018-07-21T00:35:58.479Z,2.57
2018-07-21T00:38:24.422Z,2.50
2018-07-21T00:40:50.367Z,2.30
2018-07-21T00:43:16.330Z,2.20
2018-07-21T00:45:43.020Z,2.33
2018-07-21T00:48:08.985Z,2.50
2018-07-21T00:50:35.672Z,2.30
2018-07-21T00:53:01.628Z,2.23
2018-07-21T00:55:27.584Z,2.10
2018-07-21T00:57:53.554Z,2.67
2018-07-21T01:00:19.516Z,2.20
2018-07-21T01:02:45.465Z,2.57
2018-07-21T01:05:11.402Z,2.60
2018-07-21T01:07:37.338Z,2.53
2018-07-21T01:10:03.323Z,2.37
2018-07-21T01:12:30.015Z,2.60
2018-07-21T01:14:55.972Z,2.00
2018-07-21T01:17:22.651Z,2.10
2018-07-21T01:19:48.616Z,2.37
2018-07-21T01:22:14.551Z,2.10
2018-07-21T01:24:41.259Z,2.20
2018-07-21T01:27:07.973Z,2.63
2018-07-21T01:29:33.919Z,2.20
2018-07-21T01:31:59.874Z,2.23
2018-07-21T01:34:26.563Z,2.60
2018-07-21T01:36:53.274Z,2.27
2018-07-21T01:39:19.219Z,2.30
2018-07-21T01:41:45.187Z,2.60
2018-07-21T01:44:11.118Z,2.00
2018-07-21T01:46:37.092Z,2.00
2018-07-21T01:49:03.026Z,1.80
2018-07-21T01:51:28.972Z,2.23
2018-07-21T01:53:55.703Z,2.10
2018-07-21T01:56:21.646Z,2.40
2018-07-21T01:58:48.347Z,2.30
2018-07-21T02:01:14.283Z,2.00
2018-07-21T02:03:40.256Z,2.10
2018-07-21T02:06:06.941Z,2.00
2018-07-21T02:08:32.935Z,2.20
2018-07-21T02:10:58.881Z,2.30
2018-07-21T02:13:24.836Z,2.33
2018-07-21T02:15:51.526Z,2.30
2018-07-21T02:18:17.469Z,1.87
2018-07-21T02:20:43.451Z,2.10
2018-07-21T02:23:09.395Z,2.23
2018-07-21T02:25:36.263Z,1.90
2018-07-21T02:28:02.212Z,2.10
2018-07-21T02:30:28.920Z,2.00
2018-07-21T02:32:54.912Z,2.33
2018-07-21T02:35:20.859Z,1.97
2018-07-21T02:37:46.836Z,2.40
2018-07-21T02:40:12.793Z,2.10
2018-07-21T02:42:38.758Z,2.00
2018-07-21T02:45:04.695Z,1.73
2018-07-21T02:47:31.401Z,1.83
2018-07-21T02:49:57.340Z,2.10
2018-07-21T02:52:23.279Z,1.90
2018-07-21T02:54:49.975Z,1.80
2018-07-21T02:57:15.926Z,1.93
2018-07-21T02:59:42.662Z,2.07
2018-07-21T03:02:08.615Z,1.73
2018-07-21T03:04:35.340Z,1.60
2018-07-21T03:07:02.036Z,1.80
2018-07-21T03:09:28.001Z,1.90
2018-07-21T03:11:53.944Z,1.60
2018-07-21T03:14:19.897Z,1.57
2018-07-21T03:16:45.835Z,2.13
2018-07-21T03:19:11.759Z,1.67
2018-07-21T03:21:37.711Z,1.70
2018-07-21T03:24:04.399Z,2.17
2018-07-21T03:26:30.351Z,2.17
2018-07-21T03:28:56.278Z,1.90
2018-07-21T03:31:22.225Z,1.90
2018-07-21T03:33:48.925Z,1.97
2018-07-21T03:36:14.906Z,1.80
2018-07-21T03:38:41.583Z,1.90
2018-07-21T03:41:07.540Z,1.67
2018-07-21T03:43:34.255Z,1.90
2018-07-21T03:46:00.202Z,1.63
2018-07-21T03:48:26.152Z,2.00
2018-07-21T03:50:52.142Z,1.43
2018-07-21T03:53:18.861Z,1.80
2018-07-21T03:55:44.803Z,1.60
2018-07-21T03:58:11.536Z,1.90
2018-07-21T04:00:38.256Z,1.80
2018-07-21T04:03:04.218Z,1.70
2018-07-21T04:05:30.928Z,1.80
2018-07-21T04:07:56.889Z,1.50
2018-07-21T04:10:23.578Z,1.77
2018-07-21T04:12:49.535Z,1.80
2018-07-21T04:15:16.230Z,1.80
2018-07-21T04:17:42.167Z,1.67
2018-07-21T04:20:08.150Z,2.00
2018-07-21T04:22:34.108Z,1.80
2018-07-21T04:25:00.069Z,2.00
2018-07-21T04:27:26.765Z,1.87
2018-07-21T04:29:52.722Z,1.83
2018-07-21T04:32:19.435Z,1.90
2018-07-21T04:34:45.389Z,1.80
2018-07-21T04:37:11.361Z,1.90
2018-07-21T04:39:37.330Z,2.33
2018-07-21T04:42:04.026Z,1.93
2018-07-21T04:44:29.994Z,2.00
2018-07-21T04:46:55.929Z,2.20
2018-07-21T04:49:22.618Z,1.87
2018-07-21T04:51:48.577Z,1.90
2018-07-21T04:54:14.528Z,2.00
2018-07-21T04:56:41.224Z,1.70
2018-07-21T04:59:07.203Z,2.00
2018-07-21T05:01:33.158Z,1.80
2018-07-21T05:03:59.117Z,1.77
2018-07-21T05:06:25.834Z,1.70
2018-07-21T05:08:51.782Z,1.80
2018-07-21T05:11:18.491Z,2.10
2018-07-21T05:13:44.436Z,1.90
2018-07-21T05:16:10.408Z,1.67
2018-07-21T05:18:36.355Z,1.80
2018-07-21T05:21:02.358Z,1.93
2018-07-21T05:23:28.312Z,1.70
2018-07-21T05:25:54.255Z,1.80
2018-07-21T05:28:20.947Z,1.90
2018-07-21T05:30:46.894Z,2.00
2018-07-21T05:33:12.853Z,1.90
2018-07-21T05:35:38.801Z,1.80
2018-07-21T05:38:04.791Z,1.90
2018-07-21T05:40:30.757Z,1.90
2018-07-21T05:42:56.712Z,1.90
2018-07-21T05:45:22.653Z,1.97
2018-07-21T05:47:49.369Z,1.87
2018-07-21T05:50:15.317Z,1.80
2018-07-21T05:52:42.030Z,1.93
2018-07-21T05:55:08.015Z,1.70
2018-07-21T05:57:33.947Z,2.10
2018-07-21T05:59:59.896Z,1.90
2018-07-21T06:02:25.825Z,1.90
2018-07-21T06:04:51.787Z,2.10
2018-07-21T06:07:17.740Z,1.93
2018-07-21T06:09:44.454Z,2.30
2018-07-21T06:12:10.415Z,2.00
2018-07-21T06:14:36.370Z,1.87
2018-07-21T06:17:03.196Z,1.77
2018-07-21T06:19:29.817Z,1.77
2018-07-21T06:21:55.785Z,1.60
2018-07-21T06:24:22.496Z,1.90
2018-07-21T06:26:49.221Z,1.90
2018-07-21T06:29:15.140Z,1.70
2018-07-21T06:31:41.091Z,1.80
2018-07-21T06:34:07.080Z,2.07
2018-07-21T06:36:33.023Z,1.90
2018-07-21T06:38:58.998Z,1.77
2018-07-21T06:41:24.938Z,1.70
2018-07-21T06:43:50.925Z,2.07
2018-07-21T06:46:17.596Z,2.00
2018-07-21T06:48:43.578Z,2.13
2018-07-21T06:51:10.272Z,2.20
2018-07-21T06:53:36.209Z,1.90
2018-07-21T06:56:02.186Z,2.30
2018-07-21T06:58:28.120Z,1.90
2018-07-21T07:00:54.090Z,1.90
2018-07-21T07:03:20.036Z,2.00
2018-07-21T07:05:46.732Z,1.80
2018-07-21T07:08:12.685Z,2.20
2018-07-21T07:10:38.646Z,1.80
2018-07-21T07:13:04.617Z,1.97
2018-07-21T07:15:30.546Z,1.80
2018-07-21T07:17:56.526Z,2.07
2018-07-21T07:20:22.492Z,2.00
2018-07-21T07:22:48.460Z,2.10
2018-07-21T07:25:14.410Z,1.63
2018-07-21T07:27:40.378Z,2.10
2018-07-21T07:30:07.052Z,1.90
2018-07-21T07:32:33.021Z,2.10
2018-07-21T07:34:59.717Z,1.87
2018-07-21T07:37:25.668Z,2.00
2018-07-21T07:39:51.630Z,2.10
2018-07-21T07:42:18.308Z,2.10
2018-07-21T07:44:44.282Z,2.10
2018-07-21T07:47:10.959Z,2.27
2018-07-21T07:49:36.909Z,2.40
2018-07-21T07:52:02.850Z,2.05
2018-07-21T07:54:29.550Z,2.30
2018-07-21T07:56:55.496Z,2.20
2018-07-21T07:59:21.466Z,2.12
2018-07-21T08:01:47.511Z,2.25
2018-07-21T08:04:13.464Z,2.33
2018-07-21T08:06:39.420Z,2.78
2018-07-21T08:09:06.155Z,2.20
2018-07-21T08:11:32.869Z,2.37
2018-07-21T08:13:58.883Z,2.60
2018-07-21T08:16:24.825Z,2.10
2018-07-21T08:18:50.779Z,2.20
2018-07-21T08:21:17.464Z,2.62
2018-07-21T08:23:43.436Z,2.30
2018-07-21T08:26:10.141Z,2.45
2018-07-21T08:28:36.091Z,2.60
2018-07-21T08:31:02.792Z,2.20
2018-07-21T08:33:28.748Z,2.10
2018-07-21T08:35:54.709Z,2.42
2018-07-21T08:38:20.653Z,2.67
2018-07-21T08:40:46.615Z,2.20
2018-07-21T08:43:13.319Z,2.33
2018-07-21T08:45:39.292Z,2.55
2018-07-21T08:48:05.990Z,2.53
2018-07-21T08:50:31.960Z,2.72
2018-07-21T08:52:58.628Z,2.80
2018-07-21T08:55:24.572Z,2.85
2018-07-21T08:57:50.538Z,2.53
2018-07-21T09:00:16.495Z,2.75
2018-07-21T09:02:42.451Z,2.80
2018-07-21T09:05:08.436Z,2.65
2018-07-21T09:07:34.403Z,2.50
2018-07-21T09:10:00.347Z,2.80
2018-07-21T09:12:27.056Z,2.67
2018-07-21T09:14:53.003Z,2.50
2018-07-21T09:17:19.974Z,2.70
2018-07-21T09:19:45.939Z,2.65
2018-07-21T09:22:11.878Z,2.47
2018-07-21T09:24:37.868Z,2.70
2018-07-21T09:27:03.816Z,2.83
2018-07-21T09:29:29.782Z,3.03
2018-07-21T09:31:56.482Z,2.45
2018-07-21T09:34:22.440Z,2.37
2018-07-21T09:36:49.098Z,2.60
2018-07-21T09:39:15.054Z,2.78
2018-07-21T09:41:40.977Z,2.53
2018-07-21T09:44:06.904Z,2.60
2018-07-21T09:46:32.879Z,2.70
2018-07-21T09:48:58.870Z,2.83
2018-07-21T09:51:25.573Z,3.03
2018-07-21T09:53:51.530Z,2.90
2018-07-21T09:56:17.458Z,3.10
2018-07-21T09:58:44.156Z,2.83
2018-07-21T10:01:10.117Z,2.72
2018-07-21T10:03:36.806Z,2.83
2018-07-21T10:06:02.779Z,2.80
2018-07-21T10:08:28.729Z,3.12
2018-07-21T10:10:54.706Z,2.97
2018-07-21T10:13:20.691Z,2.87
2018-07-21T10:15:46.642Z,2.80
2018-07-21T10:18:12.589Z,2.45
2018-07-21T10:20:38.580Z,2.70
2018-07-21T10:23:04.548Z,2.80
2018-07-21T10:25:30.490Z,2.80
2018-07-21T10:27:56.411Z,3.00
2018-07-21T10:30:22.391Z,2.50
2018-07-21T10:32:48.343Z,2.73
2018-07-21T10:35:15.068Z,2.80
2018-07-21T10:37:41.023Z,2.80
2018-07-21T10:40:06.999Z,3.37
2018-07-21T10:42:32.956Z,3.20
2018-07-21T10:44:58.950Z,3.00
2018-07-21T10:47:24.901Z,2.87
2018-07-21T10:49:50.879Z,3.07
2018-07-21T10:52:16.842Z,3.07
2018-07-21T10:54:43.539Z,3.20
2018-07-21T10:57:09.509Z,2.77
2018-07-21T10:59:36.189Z,3.33
2018-07-21T11:02:02.145Z,3.07
2018-07-21T11:04:28.869Z,2.77
2018-07-21T11:06:54.822Z,3.10
2018-07-21T11:09:20.765Z,3.07
2018-07-21T11:11:46.703Z,3.13
2018-07-21T11:14:12.636Z,3.33
2018-07-21T11:16:38.598Z,2.93
2018-07-21T11:19:04.584Z,3.03
2018-07-21T11:21:30.544Z,2.83
2018-07-21T11:23:57.260Z,3.30
2018-07-21T11:26:23.240Z,3.17
2018-07-21T11:28:49.235Z,2.83
2018-07-21T11:31:15.202Z,3.00
2018-07-21T11:33:41.159Z,3.17
2018-07-21T11:36:07.329Z,3.40
2018-07-21T11:38:33.121Z,3.17
2018-07-21T11:40:59.119Z,3.10
2018-07-21T11:43:25.150Z,3.00
2018-07-21T11:45:51.090Z,6.43
2018-07-21T11:48:17.066Z,3.00
2018-07-21T11:50:43.015Z,3.00
2018-07-21T11:53:08.956Z,3.03
2018-07-21T11:55:34.924Z,2.93
2018-07-21T11:58:00.855Z,3.17
2018-07-21T12:00:26.827Z,3.45
2018-07-21T12:02:52.793Z,3.00
2018-07-21T12:05:18.808Z,3.03
2018-07-21T12:07:44.763Z,2.90
2018-07-21T12:10:10.719Z,3.23
2018-07-21T12:12:36.673Z,3.23
2018-07-21T12:15:02.651Z,3.20
2018-07-21T12:17:28.624Z,3.53
2018-07-21T12:19:54.835Z,2.87
2018-07-21T12:22:20.783Z,3.00
2018-07-21T12:24:46.809Z,3.40
2018-07-21T12:27:12.789Z,2.90
2018-07-21T12:29:39.533Z,3.20
2018-07-21T12:32:06.233Z,2.90
2018-07-21T12:34:32.209Z,2.97
2018-07-21T12:36:58.875Z,3.13
2018-07-21T12:39:24.858Z,3.13
2018-07-21T12:41:51.564Z,3.30
2018-07-21T12:44:17.485Z,3.13
2018-07-21T12:46:43.467Z,3.10
2018-07-21T12:49:10.188Z,3.27
2018-07-21T12:51:36.924Z,3.30
2018-07-21T12:54:02.862Z,3.03
2018-07-21T12:56:29.541Z,3.07
2018-07-21T12:58:55.508Z,3.30
2018-07-21T13:01:22.187Z,2.87
2018-07-21T13:03:48.164Z,3.37
2018-07-21T13:06:14.862Z,3.10
2018-07-21T13:08:40.832Z,3.20
2018-07-21T13:11:07.543Z,2.90
2018-07-21T13:13:33.520Z,3.20
2018-07-21T13:15:59.572Z,3.20
2018-07-21T13:18:25.510Z,3.10
2018-07-21T13:20:51.484Z,2.90
2018-07-21T13:23:17.425Z,2.77
2018-07-21T13:25:43.379Z,2.90
2018-07-21T13:28:09.325Z,3.13
2018-07-21T13:30:35.286Z,3.30
2018-07-21T13:33:01.214Z,3.00
2018-07-21T13:35:27.186Z,2.77
2018-07-21T13:37:53.116Z,3.00
2018-07-21T13:40:19.834Z,3.17
2018-07-21T13:42:45.802Z,3.17
2018-07-21T13:45:12.486Z,3.30
2018-07-21T13:47:38.428Z,3.30
2018-07-21T13:50:04.377Z,3.03
2018-07-21T13:52:31.100Z,3.30
2018-07-21T13:54:57.125Z,3.10
2018-07-21T13:57:23.199Z,3.00
2018-07-21T13:59:49.951Z,3.00
2018-07-21T14:02:16.188Z,3.13
2018-07-21T14:04:42.094Z,3.13
2018-07-21T14:07:08.070Z,2.77
2018-07-21T14:09:34.219Z,3.20
2018-07-21T14:12:00.918Z,2.90
2018-07-21T14:14:26.874Z,3.00
2018-07-21T14:16:53.576Z,2.97
2018-07-21T14:19:19.561Z,3.23
2018-07-21T14:21:45.486Z,3.10
2018-07-21T14:24:11.463Z,3.30
2018-07-21T14:26:38.177Z,3.13
2018-07-21T14:29:04.132Z,3.20
2018-07-21T14:31:30.855Z,3.30
2018-07-21T14:34:03.621Z,3.63
2018-07-21T14:36:29.710Z,3.43
2018-07-21T14:38:55.579Z,3.40
2018-07-21T14:41:21.566Z,3.00
2018-07-21T14:43:47.512Z,3.33
2018-07-21T14:46:13.462Z,3.33
2018-07-21T14:48:39.406Z,3.23
2018-07-21T14:51:06.089Z,3.40
2018-07-21T14:53:32.035Z,3.20
2018-07-21T14:55:57.983Z,3.33
2018-07-21T14:58:24.688Z,3.33
2018-07-21T15:00:50.629Z,3.40
2018-07-21T15:03:16.574Z,3.57
2018-07-21T15:05:43.240Z,3.53
2018-07-21T15:08:09.211Z,3.40
2018-07-21T15:10:35.146Z,3.30
2018-07-21T15:13:01.840Z,3.53
2018-07-21T15:15:27.795Z,3.30
2018-07-21T15:17:53.767Z,3.30
2018-07-21T15:20:19.758Z,3.90
2018-07-21T15:22:46.461Z,3.23
2018-07-21T15:25:12.440Z,3.20
2018-07-21T15:27:38.399Z,3.17
2018-07-21T15:30:04.359Z,3.80
2018-07-21T15:32:31.051Z,3.60
2018-07-21T15:34:56.996Z,3.57
2018-07-21T15:37:22.961Z,3.60
2018-07-21T15:39:48.939Z,3.63
2018-07-21T15:42:14.887Z,3.43
2018-07-21T15:44:40.808Z,3.60
2018-07-21T15:47:07.520Z,3.30
2018-07-21T15:49:33.492Z,3.80
2018-07-21T15:51:59.480Z,3.30
2018-07-21T15:54:25.411Z,3.60
2018-07-21T15:56:52.094Z,3.73
2018-07-21T15:59:18.068Z,3.80
2018-07-21T16:01:44.015Z,3.33
2018-07-21T16:04:09.972Z,3.20
2018-07-21T16:06:35.915Z,3.70
2018-07-21T16:09:01.890Z,3.60
2018-07-21T16:11:28.547Z,3.47
2018-07-21T16:13:54.477Z,3.40
2018-07-21T16:16:20.458Z,3.13
2018-07-21T16:18:46.372Z,3.20
2018-07-21T16:21:12.332Z,3.50
2018-07-21T16:23:38.260Z,3.77
2018-07-21T16:26:04.229Z,3.70
2018-07-21T16:28:30.163Z,3.07
2018-07-21T16:30:56.098Z,3.70
2018-07-21T16:33:22.763Z,3.60
2018-07-21T16:35:48.723Z,3.40
2018-07-21T16:38:14.686Z,3.30
2018-07-21T16:40:41.339Z,3.57
2018-07-21T16:43:07.290Z,3.73
2018-07-21T16:45:33.219Z,3.33
2018-07-21T16:47:59.162Z,3.70
2018-07-21T16:50:25.095Z,3.27
2018-07-21T16:52:51.067Z,3.43
2018-07-21T16:55:17.018Z,3.47
2018-07-21T16:57:42.988Z,3.30
2018-07-21T17:00:09.712Z,3.57
2018-07-21T17:02:35.628Z,3.43
2018-07-21T17:05:01.557Z,3.37
2018-07-21T17:07:28.228Z,3.60
2018-07-21T17:09:54.544Z,3.50
2018-07-21T17:12:20.506Z,3.57
2018-07-21T17:14:46.455Z,3.27
2018-07-21T17:17:12.410Z,3.87
2018-07-21T17:19:39.111Z,3.73
2018-07-21T17:22:05.039Z,3.87
2018-07-21T17:24:30.961Z,3.80
2018-07-21T17:26:56.922Z,3.63
2018-07-21T17:29:22.976Z,3.57
2018-07-21T17:31:48.981Z,3.50
2018-07-21T17:34:14.922Z,3.23
2018-07-21T17:36:40.874Z,3.70
2018-07-21T17:39:06.846Z,3.33
2018-07-21T17:41:32.814Z,3.40
2018-07-21T17:43:58.794Z,3.37
2018-07-21T17:46:24.738Z,3.60
2018-07-21T17:48:50.711Z,3.57
2018-07-21T17:51:16.697Z,3.77
2018-07-21T17:53:42.672Z,3.97
2018-07-21T17:56:08.607Z,3.50
2018-07-21T17:58:34.553Z,3.70
2018-07-21T18:01:00.504Z,3.23
2018-07-21T18:03:26.463Z,3.40
2018-07-21T18:05:52.413Z,3.47
2018-07-21T18:08:18.383Z,3.50
2018-07-21T18:10:45.086Z,4.00
2018-07-21T18:13:11.058Z,3.57
2018-07-21T18:15:37.757Z,3.97
2018-07-21T18:18:03.704Z,3.60
2018-07-21T18:20:30.452Z,4.23
2018-07-21T18:22:56.375Z,3.50
2018-07-21T18:25:23.108Z,3.60
2018-07-21T18:27:49.826Z,3.60
2018-07-21T18:30:15.769Z,3.70
2018-07-21T18:32:42.501Z,3.70
2018-07-21T18:35:09.213Z,3.83
2018-07-21T18:37:35.152Z,3.97
2018-07-21T18:40:01.180Z,3.60
2018-07-21T18:42:27.107Z,3.63
2018-07-21T18:44:53.054Z,3.40
2018-07-21T18:47:19.753Z,3.57
2018-07-21T18:49:45.688Z,3.40
2018-07-21T18:52:11.668Z,3.17
2018-07-21T18:54:37.603Z,3.50
2018-07-21T18:57:03.558Z,3.33
2018-07-21T18:59:29.514Z,3.23
2018-07-21T19:01:55.466Z,3.60
2018-07-21T19:04:21.442Z,3.70
2018-07-21T19:06:48.128Z,3.43
2018-07-21T19:09:14.104Z,3.40
2018-07-21T19:11:40.066Z,3.90
2018-07-21T19:14:05.998Z,3.10
2018-07-21T19:16:31.951Z,3.70
2018-07-21T19:18:57.909Z,3.80
2018-07-21T19:21:23.892Z,3.57
2018-07-21T19:23:50.608Z,3.37
2018-07-21T19:26:16.616Z,3.43
2018-07-21T19:28:42.563Z,3.77
2018-07-21T19:31:08.533Z,3.60
2018-07-21T19:33:35.201Z,3.63
2018-07-21T19:36:01.140Z,3.67
2018-07-21T19:38:27.094Z,3.57
2018-07-21T19:40:53.043Z,3.40
2018-07-21T19:43:19.002Z,3.53
2018-07-21T19:45:44.976Z,3.77
2018-07-21T19:48:10.922Z,3.80
2018-07-21T19:50:36.860Z,3.27
2018-07-21T19:53:02.821Z,3.43
2018-07-21T19:55:28.788Z,3.80
2018-07-21T19:57:54.758Z,3.30
2018-07-21T20:00:21.459Z,3.60
2018-07-21T20:02:47.425Z,3.60
2018-07-21T20:05:13.381Z,3.90
2018-07-21T20:07:39.360Z,3.97
2018-07-21T20:10:05.311Z,3.63
2018-07-21T20:12:32.004Z,3.70
2018-07-21T20:14:57.964Z,3.97
2018-07-21T20:17:23.924Z,3.40
2018-07-21T20:19:49.885Z,3.70
2018-07-21T20:22:15.802Z,3.20
2018-07-21T20:24:41.767Z,3.53
2018-07-21T20:27:07.695Z,3.50
2018-07-21T20:29:34.367Z,3.50
2018-07-21T20:32:00.345Z,3.20
2018-07-21T20:34:27.028Z,3.77
2018-07-21T20:36:53.006Z,3.53
2018-07-21T20:39:18.949Z,3.30
2018-07-21T20:41:44.943Z,3.80
2018-07-21T20:44:11.664Z,3.40
2018-07-21T20:46:37.628Z,4.07
2018-07-21T20:49:04.309Z,3.73
2018-07-21T20:51:30.288Z,3.43
2018-07-21T20:53:56.990Z,3.67
2018-07-21T20:56:22.954Z,4.00
2018-07-21T20:58:48.920Z,3.57
2018-07-21T21:01:14.888Z,3.60
2018-07-21T21:03:41.602Z,3.27
2018-07-21T21:06:07.582Z,3.10
2018-07-21T21:08:33.549Z,3.03
2018-07-21T21:10:59.502Z,3.20
2018-07-21T21:13:26.197Z,3.43
2018-07-21T21:15:52.161Z,3.63
2018-07-21T21:18:18.843Z,3.70
2018-07-21T21:20:44.802Z,3.10
2018-07-21T21:23:11.467Z,3.07
2018-07-21T21:25:38.161Z,3.27
2018-07-21T21:28:04.119Z,3.03
2018-07-21T21:30:30.834Z,3.23
2018-07-21T21:32:56.784Z,3.40
2018-07-21T21:35:23.461Z,3.17
2018-07-21T21:37:49.435Z,3.63
2018-07-21T21:40:15.370Z,3.33
2018-07-21T21:42:42.148Z,3.03
2018-07-21T21:45:08.043Z,3.63
2018-07-21T21:47:34.010Z,3.60
2018-07-21T21:49:59.985Z,3.20
2018-07-21T21:52:26.678Z,3.37
2018-07-21T21:54:52.641Z,3.70
2018-07-21T21:57:19.363Z,3.33
2018-07-21T21:59:45.435Z,3.30
2018-07-21T22:02:11.408Z,3.57
2018-07-21T22:04:37.447Z,3.37
2018-07-21T22:07:03.445Z,3.20
2018-07-21T22:09:30.186Z,3.10
2018-07-21T22:11:56.151Z,3.37
2018-07-21T22:14:22.891Z,3.17
2018-07-21T22:16:48.829Z,3.67
2018-07-21T22:19:14.770Z,3.30
2018-07-21T22:21:40.724Z,3.50
2018-07-21T22:24:06.667Z,3.47
2018-07-21T22:26:32.632Z,3.70
2018-07-21T22:28:58.574Z,3.40
2018-07-21T22:31:24.551Z,3.37
2018-07-21T22:33:51.227Z,3.30
2018-07-21T22:36:17.185Z,3.03
2018-07-21T22:38:43.142Z,3.50
2018-07-21T22:41:09.852Z,3.80
2018-07-21T22:43:35.817Z,3.40
2018-07-21T22:46:01.749Z,3.37
2018-07-21T22:48:27.708Z,3.30
2018-07-21T22:50:53.636Z,3.87
2018-07-21T22:53:19.612Z,3.23
2018-07-21T22:55:45.566Z,3.50
2018-07-21T22:58:11.499Z,3.73
2018-07-21T23:00:37.482Z,3.93
2018-07-21T23:03:03.441Z,3.57
2018-07-21T23:05:29.402Z,3.53
2018-07-21T23:07:55.380Z,4.00
2018-07-21T23:10:21.333Z,4.10
2018-07-21T23:12:47.314Z,3.60
2018-07-21T23:15:13.277Z,4.43
2018-07-21T23:17:39.963Z,3.23
2018-07-21T23:20:05.923Z,3.70
2018-07-21T23:22:31.848Z,3.90
2018-07-21T23:24:57.773Z,3.77
2018-07-21T23:27:23.754Z,3.90
2018-07-21T23:29:49.687Z,3.90
2018-07-21T23:32:15.635Z,4.03
2018-07-21T23:34:41.589Z,3.77
2018-07-21T23:37:07.578Z,3.70
2018-07-21T23:39:33.536Z,3.57
2018-07-21T23:42:00.262Z,3.17
2018-07-21T23:44:26.941Z,3.30
2018-07-21T23:46:52.896Z,3.67
2018-07-21T23:49:19.638Z,3.43
2018-07-21T23:51:45.562Z,3.60
2018-07-21T23:54:11.522Z,3.97
2018-07-21T23:56:38.211Z,3.37
2018-07-21T23:59:04.208Z,3.63
